Time,TemperatureF,DewpointF,PressureIn,WindDirection,WindDirectionDegrees,WindSpeedMPH,WindSpeedGustMPH,Humidity,HourlyPrecipIn,Conditions,Clouds,dailyrainin,SolarRadiationWatts/m^2,SoftwareType,DateUTC
2013-10-15 00:00:00,59.3,50.3,29.80,SE,129,1.6,3.5,72,0.01,RA,,0.02,0.0,WeatherDisplay:10.37,2013-10-15 05:00:00,
2013-10-15 00:05:00,57.9,50.7,29.81,SE,135,1.9,5.8,77,0.02,RA,,0.01,0.0,WeatherDisplay:10.37,2013-10-15 05:05:00,
2013-10-15 00:11:00,57.1,51.0,29.80,SSE,161,1.5,3.5,80,0.01,RA,,0.02,0.0,WeatherDisplay:10.37,2013-10-15 05:11:00,
2013-10-15 00:16:00,56.6,51.5,29.81,SE,138,0.3,2.3,83,0.04,RA,,0.05,0.0,WeatherDisplay:10.37,2013-10-15 05:16:00,
2013-10-15 00:21:00,55.6,51.8,29.82,SSE,159,0.6,3.5,87,0.07,RA,,0.08,0.0,WeatherDisplay:10.37,2013-10-15 05:21:00,
2013-10-15 00:26:00,55.1,52.2,29.84,South,182,0.3,2.3,90,0.08,RA,,0.09,0.0,WeatherDisplay:10.37,2013-10-15 05:26:00,
2013-10-15 00:32:00,54.8,52.5,29.84,South,181,0.2,2.3,92,0.10,RA,,0.11,0.0,WeatherDisplay:10.37,2013-10-15 05:32:00,
2013-10-15 00:52:00,54.9,52.6,29.83,North,5,0.0,2.0,92,0.01,RA,RA,0.13,0.0,WeatherDisplay:10.37,2013-10-15 05:52:00,
2013-10-15 00:57:00,55.0,53.3,29.81,NE,53,1.1,3.5,94,0.12,OVC,,0.13,0.0,WeatherDisplay:10.37,2013-10-15 05:57:00,
2013-10-15 01:02:00,55.2,53.5,29.81,NE,53,0.1,1.2,94,0.14,RA,,0.15,0.0,WeatherDisplay:10.37,2013-10-15 06:02:00,
2013-10-15 01:07:00,55.3,53.6,29.81,ENE,57,0.4,2.3,94,0.14,OVC,,0.15,0.0,WeatherDisplay:10.37,2013-10-15 06:07:00,
2013-10-15 01:13:00,55.4,53.7,29.81,ENE,57,0.3,1.0,94,0.14,OVC,,0.15,0.0,WeatherDisplay:10.37,2013-10-15 06:13:00,
2013-10-15 01:18:00,55.6,53.9,29.81,ENE,57,0.6,2.3,94,0.14,OVC,,0.15,0.0,WeatherDisplay:10.37,2013-10-15 06:18:00,
2013-10-15 01:23:00,55.7,54.0,29.81,SSE,157,0.0,1.2,94,0.14,OVC,,0.15,0.0,WeatherDisplay:10.37,2013-10-15 06:23:00,
2013-10-15 01:31:00,56.0,54.3,29.79,NNE,32,0.0,4.6,94,0.15,RA,,0.15,0.0,WeatherDisplay:10.37,2013-10-15 06:31:00,
2013-10-15 01:37:00,56.1,54.4,29.78,East,94,2.0,6.0,94,0.00,OVC,OVC,0.15,0.0,WeatherDisplay:10.37,2013-10-15 06:37:00,
2013-10-15 01:42:00,56.3,54.9,29.77,SE,125,1.0,6.0,95,0.00,OVC,OVC,0.15,0.0,WeatherDisplay:10.37,2013-10-15 06:42:00,
2013-10-15 01:47:00,56.4,55.0,29.77,SE,129,1.0,5.0,95,0.00,OVC,OVC,0.15,0.0,WeatherDisplay:10.37,2013-10-15 06:47:00,
2013-10-15 01:52:00,56.5,54.8,29.77,SE,141,1.0,5.0,94,0.00,OVC,OVC,0.15,0.0,WeatherDisplay:10.37,2013-10-15 06:52:00,
2013-10-15 01:57:00,56.7,55.0,29.76,ENE,78,2.3,3.5,94,0.06,OVC,,0.15,0.0,WeatherDisplay:10.37,2013-10-15 06:57:00,
2013-10-15 02:02:00,56.8,55.1,29.75,ENE,67,2.0,2.3,94,0.02,OVC,,0.15,0.0,WeatherDisplay:10.37,2013-10-15 07:02:00,
2013-10-15 02:07:00,56.8,55.1,29.77,ESE,111,0.8,3.5,94,0.01,OVC,,0.15,0.0,WeatherDisplay:10.37,2013-10-15 07:07:00,
2013-10-15 02:12:00,57.0,55.6,29.76,ESE,111,0.6,2.3,95,0.00,OVC,,0.15,0.0,WeatherDisplay:10.37,2013-10-15 07:12:00,
2013-10-15 02:18:00,57.1,55.7,29.75,NE,52,1.3,3.5,95,0.00,OVC,,0.15,0.0,WeatherDisplay:10.37,2013-10-15 07:18:00,
2013-10-15 02:23:00,57.1,55.4,29.75,SSE,163,0.3,1.2,94,0.00,OVC,,0.15,0.0,WeatherDisplay:10.37,2013-10-15 07:23:00,
2013-10-15 02:28:00,57.2,55.8,29.76,SSE,166,0.7,3.5,95,0.00,OVC,,0.15,0.0,WeatherDisplay:10.37,2013-10-15 07:28:00,
2013-10-15 02:33:00,57.4,56.0,29.75,SSE,149,1.3,3.5,95,0.00,OVC,,0.15,0.0,WeatherDisplay:10.37,2013-10-15 07:33:00,
2013-10-15 02:39:00,57.5,56.1,29.75,SSE,152,1.3,2.3,95,0.00,OVC,,0.15,0.0,WeatherDisplay:10.37,2013-10-15 07:39:00,
2013-10-15 02:44:00,57.6,55.9,29.76,ESE,108,1.5,3.5,94,0.00,OVC,,0.15,0.0,WeatherDisplay:10.37,2013-10-15 07:44:00,
2013-10-15 02:49:00,57.7,56.0,29.77,SE,127,1.0,5.8,94,0.00,OVC,,0.15,0.0,WeatherDisplay:10.37,2013-10-15 07:49:00,
2013-10-15 02:54:00,57.8,56.4,29.77,NE,42,1.7,3.5,95,0.00,OVC,,0.15,0.0,WeatherDisplay:10.37,2013-10-15 07:54:00,
2013-10-15 03:00:00,58.0,56.3,29.76,NE,34,1.1,4.6,94,0.00,OVC,,0.15,0.0,WeatherDisplay:10.37,2013-10-15 08:00:00,
2013-10-15 03:05:00,58.0,56.3,29.76,SE,127,1.5,3.5,94,0.00,OVC,,0.15,0.0,WeatherDisplay:10.37,2013-10-15 08:05:00,
2013-10-15 03:10:00,58.1,56.4,29.75,SE,126,2.2,4.6,94,0.00,OVC,,0.15,0.0,WeatherDisplay:10.37,2013-10-15 08:10:00,
2013-10-15 03:16:00,58.1,56.4,29.76,NW,304,1.3,3.5,94,0.00,OVC,,0.15,0.0,WeatherDisplay:10.37,2013-10-15 08:16:00,
2013-10-15 03:21:00,58.2,56.8,29.76,SE,142,3.7,12.0,95,0.00,OVC,,0.15,0.0,WeatherDisplay:10.37,2013-10-15 08:21:00,
2013-10-15 03:26:00,58.2,56.8,29.75,SE,144,0.5,2.3,95,0.00,OVC,,0.15,0.0,WeatherDisplay:10.37,2013-10-15 08:26:00,
2013-10-15 03:31:00,58.3,56.9,29.75,NE,37,1.1,3.5,95,0.00,OVC,,0.15,0.0,WeatherDisplay:10.37,2013-10-15 08:31:00,
2013-10-15 03:37:00,58.4,56.7,29.75,ESE,121,1.0,2.3,94,0.00,OVC,,0.15,0.0,WeatherDisplay:10.37,2013-10-15 08:37:00,
2013-10-15 03:42:00,58.5,56.8,29.74,SSE,151,1.5,4.6,94,0.00,OVC,,0.15,0.0,WeatherDisplay:10.37,2013-10-15 08:42:00,
2013-10-15 03:47:00,58.6,56.8,29.74,SE,141,1.0,5.0,94,0.00,OVC,OVC,0.15,0.0,WeatherDisplay:10.37,2013-10-15 08:47:00,
2013-10-15 03:50:00,58.6,56.9,29.74,SE,132,0.3,2.3,94,0.00,OVC,,0.15,0.0,WeatherDisplay:10.37,2013-10-15 08:50:00,
2013-10-15 03:55:00,58.5,56.8,29.74,SSE,162,1.2,5.8,94,0.00,OVC,,0.15,0.0,WeatherDisplay:10.37,2013-10-15 08:55:00,
2013-10-15 04:00:00,58.5,56.8,29.74,SE,129,0.7,2.3,94,0.00,OVC,,0.15,0.0,WeatherDisplay:10.37,2013-10-15 09:00:00,
2013-10-15 04:06:00,58.7,57.0,29.74,SSE,148,1.7,8.1,94,0.00,OVC,,0.15,0.0,WeatherDisplay:10.37,2013-10-15 09:06:00,
2013-10-15 04:11:00,58.8,57.1,29.74,ESE,105,1.4,6.9,94,0.00,OVC,,0.15,0.0,WeatherDisplay:10.37,2013-10-15 09:11:00,
2013-10-15 04:16:00,58.7,57.0,29.74,SE,129,0.2,2.0,94,0.00,OVC,,0.15,0.0,WeatherDisplay:10.37,2013-10-15 09:16:00,
2013-10-15 04:22:00,58.7,57.0,29.74,ESE,119,0.0,2.0,94,0.00,OVC,OVC,0.15,0.0,WeatherDisplay:10.37,2013-10-15 09:22:00,
2013-10-15 04:27:00,58.8,57.0,29.74,SE,131,1.0,2.0,94,0.00,RA,RA,0.16,0.0,WeatherDisplay:10.37,2013-10-15 09:27:00,
2013-10-15 04:32:00,58.8,57.1,29.75,SE,131,0.4,2.3,94,0.01,OVC,,0.16,0.0,WeatherDisplay:10.37,2013-10-15 09:32:00,
2013-10-15 04:37:00,58.8,57.1,29.76,SE,125,0.5,3.0,94,0.01,OVC,,0.16,0.0,WeatherDisplay:10.37,2013-10-15 09:37:00,
2013-10-15 04:42:00,58.4,56.1,29.76,NNE,32,1.9,8.1,92,0.01,OVC,,0.16,0.0,WeatherDisplay:10.37,2013-10-15 09:42:00,
2013-10-15 04:48:00,57.5,54.9,29.76,SSE,167,0.6,3.5,91,0.01,OVC,,0.16,0.0,WeatherDisplay:10.37,2013-10-15 09:48:00,
2013-10-15 04:53:00,56.3,52.8,29.76,NNE,32,2.0,3.5,88,0.01,OVC,,0.16,0.0,WeatherDisplay:10.37,2013-10-15 09:53:00,
2013-10-15 04:58:00,55.2,51.4,29.77,South,178,1.7,4.6,87,0.01,OVC,,0.16,0.0,WeatherDisplay:10.37,2013-10-15 09:58:00,
2013-10-15 05:03:00,54.5,51.3,29.77,East,87,0.6,2.3,89,0.01,OVC,,0.16,0.0,WeatherDisplay:10.37,2013-10-15 10:03:00,
2013-10-15 05:09:00,54.1,51.2,29.78,NE,38,1.0,3.5,90,0.01,OVC,,0.16,0.0,WeatherDisplay:10.37,2013-10-15 10:09:00,
2013-10-15 05:14:00,54.1,51.5,29.78,NE,34,0.8,2.3,91,0.01,OVC,,0.16,0.0,WeatherDisplay:10.37,2013-10-15 10:14:00,
2013-10-15 05:19:00,54.0,51.4,29.78,NNE,32,0.9,3.5,91,0.01,OVC,,0.16,0.0,WeatherDisplay:10.37,2013-10-15 10:19:00,
2013-10-15 05:24:00,53.9,51.0,29.78,NNE,32,1.2,2.3,90,0.01,OVC,,0.16,0.0,WeatherDisplay:10.37,2013-10-15 10:24:00,
2013-10-15 05:30:00,53.6,50.7,29.78,NNE,32,0.7,2.0,90,0.00,OVC,,0.16,0.0,WeatherDisplay:10.37,2013-10-15 10:30:00,
2013-10-15 05:35:00,53.5,50.6,29.78,NNE,32,0.1,1.2,90,0.00,OVC,,0.16,0.0,WeatherDisplay:10.37,2013-10-15 10:35:00,
2013-10-15 05:40:00,53.3,50.4,29.79,NNE,32,0.4,3.0,90,0.00,OVC,,0.16,0.0,WeatherDisplay:10.37,2013-10-15 10:40:00,
2013-10-15 05:45:00,53.2,50.0,29.79,NNE,32,0.8,3.5,89,0.00,OVC,,0.16,0.0,WeatherDisplay:10.37,2013-10-15 10:45:00,
2013-10-15 05:51:00,53.1,50.2,29.79,NNE,32,0.2,1.0,90,0.00,OVC,,0.16,0.0,WeatherDisplay:10.37,2013-10-15 10:51:00,
2013-10-15 05:56:00,53.0,49.8,29.79,NNE,32,0.0,0.0,89,0.00,OVC,,0.16,0.0,WeatherDisplay:10.37,2013-10-15 10:56:00,
2013-10-15 06:01:00,52.9,49.7,29.79,NE,38,1.1,3.5,89,0.00,OVC,,0.16,0.0,WeatherDisplay:10.37,2013-10-15 11:01:00,
2013-10-15 06:06:00,52.8,49.6,29.79,ESE,119,0.5,6.0,89,0.00,OVC,,0.16,0.0,WeatherDisplay:10.37,2013-10-15 11:06:00,
2013-10-15 06:12:00,52.7,49.9,29.79,ENE,59,1.0,5.0,90,0.00,OVC,OVC,0.16,0.0,WeatherDisplay:10.37,2013-10-15 11:12:00,
2013-10-15 06:17:00,52.7,49.5,29.79,NNE,32,0.5,2.3,89,0.00,OVC,,0.16,0.0,WeatherDisplay:10.37,2013-10-15 11:17:00,
2013-10-15 06:22:00,52.7,49.5,29.79,NNE,32,0.0,2.0,89,0.00,OVC,OVC,0.16,0.0,WeatherDisplay:10.37,2013-10-15 11:22:00,
2013-10-15 06:27:00,52.5,49.7,29.79,NNE,32,0.0,1.0,90,0.00,OVC,OVC,0.16,0.0,WeatherDisplay:10.37,2013-10-15 11:27:00,
2013-10-15 06:32:00,52.6,49.5,29.80,NNE,32,0.0,2.0,89,0.00,OVC,OVC,0.16,0.0,WeatherDisplay:10.37,2013-10-15 11:32:00,
2013-10-15 06:37:00,52.6,49.4,29.80,NNE,32,1.0,3.0,89,0.00,OVC,OVC,0.16,0.0,WeatherDisplay:10.37,2013-10-15 11:37:00,
2013-10-15 06:42:00,52.5,49.7,29.80,NNE,32,0.2,3.5,90,0.00,OVC,,0.16,0.0,WeatherDisplay:10.37,2013-10-15 11:42:00,
2013-10-15 06:47:00,52.5,49.4,29.80,NE,41,0.3,2.3,89,0.00,OVC,,0.16,0.0,WeatherDisplay:10.37,2013-10-15 11:47:00,
2013-10-15 06:52:00,52.4,49.6,29.79,ESE,120,0.7,2.3,90,0.00,OVC,,0.16,0.0,WeatherDisplay:10.37,2013-10-15 11:52:00,
2013-10-15 06:58:00,52.3,49.5,29.80,SE,134,0.8,3.5,90,0.00,OVC,,0.16,0.0,WeatherDisplay:10.37,2013-10-15 11:58:00,
2013-10-15 07:03:00,52.3,49.2,29.80,SE,134,0.0,0.0,89,0.00,OVC,,0.16,0.0,WeatherDisplay:10.37,2013-10-15 12:03:00,
2013-10-15 07:08:00,52.2,49.1,29.80,NNE,32,1.2,3.5,89,0.00,OVC,,0.16,0.0,WeatherDisplay:10.37,2013-10-15 12:08:00,
2013-10-15 07:13:00,52.2,48.8,29.79,SSE,163,1.5,5.8,88,0.00,OVC,,0.16,0.0,WeatherDisplay:10.37,2013-10-15 12:13:00,
2013-10-15 07:19:00,52.1,48.0,29.79,SW,220,1.3,3.5,86,0.00,OVC,,0.16,0.0,WeatherDisplay:10.37,2013-10-15 12:19:00,
2013-10-15 07:24:00,51.9,47.5,29.80,NE,56,1.2,3.5,85,0.00,OVC,,0.16,0.0,WeatherDisplay:10.37,2013-10-15 12:24:00,
2013-10-15 07:29:00,51.7,47.3,29.80,NE,56,0.5,2.3,85,0.00,OVC,,0.16,0.0,WeatherDisplay:10.37,2013-10-15 12:29:00,
2013-10-15 07:34:00,51.5,46.8,29.80,ESE,103,0.4,2.3,84,0.20,OVC,,0.36,0.0,WeatherDisplay:10.37,2013-10-15 12:34:00,
2013-10-15 07:40:00,51.4,46.4,29.81,NNE,32,1.3,5.0,83,0.20,OVC,,0.36,5.0,WeatherDisplay:10.37,2013-10-15 12:40:00,
2013-10-15 07:45:00,51.1,45.8,29.82,SE,134,1.7,3.5,82,0.20,OVC,,0.36,7.0,WeatherDisplay:10.37,2013-10-15 12:45:00,
2013-10-15 07:50:00,50.9,45.9,29.81,NE,40,1.4,3.5,83,0.20,OVC,,0.36,11.0,WeatherDisplay:10.37,2013-10-15 12:50:00,
2013-10-15 07:55:00,50.8,46.1,29.82,SE,127,0.3,1.2,84,0.20,OVC,,0.36,14.0,WeatherDisplay:10.37,2013-10-15 12:55:00,
2013-10-15 08:01:00,50.7,46.0,29.82,WSW,237,0.1,2.0,84,0.20,OVC,,0.36,12.0,WeatherDisplay:10.37,2013-10-15 13:01:00,
2013-10-15 08:06:00,50.6,45.6,29.83,NNE,31,1.6,3.5,83,0.20,OVC,,0.36,16.0,WeatherDisplay:10.37,2013-10-15 13:06:00,
2013-10-15 08:11:00,50.4,44.8,29.83,NNE,32,3.3,9.2,81,0.20,OVC,,0.36,21.0,WeatherDisplay:10.37,2013-10-15 13:11:00,
2013-10-15 08:16:00,50.3,45.0,29.82,East,98,0.3,2.3,82,0.20,OVC,,0.36,21.0,WeatherDisplay:10.37,2013-10-15 13:16:00,
2013-10-15 08:22:00,50.1,44.8,29.83,ESE,107,0.0,4.0,82,0.00,OVC,OVC,0.36,25.0,WeatherDisplay:10.37,2013-10-15 13:22:00,
2013-10-15 08:27:00,50.1,44.8,29.83,South,177,2.0,7.0,82,0.00,OVC,OVC,0.36,42.0,WeatherDisplay:10.37,2013-10-15 13:27:00,
2013-10-15 08:32:00,50.1,44.5,29.83,NW,322,1.7,8.0,81,0.20,OVC,,0.36,30.0,WeatherDisplay:10.37,2013-10-15 13:32:00,
2013-10-15 08:37:00,50.1,44.2,29.83,NNW,342,1.0,8.0,80,0.00,OVC,OVC,0.36,47.0,WeatherDisplay:10.37,2013-10-15 13:37:00,
2013-10-15 08:42:00,50.1,44.2,29.83,NW,309,1.2,3.5,80,0.00,OVC,,0.36,65.0,WeatherDisplay:10.37,2013-10-15 13:42:00,
2013-10-15 08:47:00,50.3,44.4,29.83,NNE,24,1.3,3.5,80,0.00,OVC,,0.36,74.0,WeatherDisplay:10.37,2013-10-15 13:47:00,
2013-10-15 08:52:00,50.4,44.8,29.83,NNE,31,0.1,1.2,81,0.00,OVC,,0.36,70.0,WeatherDisplay:10.37,2013-10-15 13:52:00,
2013-10-15 08:58:00,50.5,44.9,29.83,West,281,0.1,1.2,81,0.00,OVC,,0.36,67.0,WeatherDisplay:10.37,2013-10-15 13:58:00,
2013-10-15 09:03:00,50.5,44.6,29.83,WNW,294,0.0,2.3,80,0.00,OVC,,0.36,60.0,WeatherDisplay:10.37,2013-10-15 14:03:00,
2013-10-15 09:08:00,50.5,44.6,29.83,NW,317,0.6,3.5,80,0.00,OVC,,0.36,62.0,WeatherDisplay:10.37,2013-10-15 14:08:00,
2013-10-15 09:13:00,50.4,44.8,29.83,NNW,329,1.6,3.5,81,0.00,OVC,,0.36,51.0,WeatherDisplay:10.37,2013-10-15 14:13:00,
2013-10-15 09:19:00,50.2,44.3,29.83,SSE,161,2.6,7.0,80,0.00,OVC,,0.36,70.0,WeatherDisplay:10.37,2013-10-15 14:19:00,
2013-10-15 09:24:00,50.0,43.4,29.83,SSW,196,3.1,9.2,78,0.00,OVC,,0.36,90.0,WeatherDisplay:10.37,2013-10-15 14:24:00,
2013-10-15 09:29:00,49.8,43.2,29.83,NNE,32,0.5,2.3,78,0.00,OVC,,0.36,95.0,WeatherDisplay:10.37,2013-10-15 14:29:00,
2013-10-15 09:34:00,49.7,42.8,29.83,NNE,32,1.4,4.0,77,0.00,OVC,,0.36,100.0,WeatherDisplay:10.37,2013-10-15 14:34:00,
2013-10-15 09:40:00,49.7,43.8,29.83,ESE,123,0.2,3.5,80,0.00,OVC,,0.36,125.0,WeatherDisplay:10.37,2013-10-15 14:40:00,
2013-10-15 09:45:00,50.2,44.3,29.83,ESE,117,1.1,3.5,80,0.00,OVC,,0.36,137.0,WeatherDisplay:10.37,2013-10-15 14:45:00,
2013-10-15 09:50:00,50.6,43.7,29.83,East,79,2.0,4.0,77,0.00,OVC,,0.36,158.0,WeatherDisplay:10.37,2013-10-15 14:50:00,
2013-10-15 09:55:00,50.6,43.3,29.83,NW,320,1.4,4.0,76,0.00,OVC,,0.36,153.0,WeatherDisplay:10.37,2013-10-15 14:55:00,
2013-10-15 10:01:00,50.2,42.6,29.84,SSW,204,2.7,3.5,75,0.00,OVC,,0.36,163.0,WeatherDisplay:10.37,2013-10-15 15:01:00,
2013-10-15 10:06:00,50.0,42.4,29.84,SSW,196,1.0,3.5,75,0.00,OVC,,0.36,142.0,WeatherDisplay:10.37,2013-10-15 15:06:00,
2013-10-15 10:11:00,50.0,42.4,29.84,ESE,123,1.5,3.5,75,0.00,OVC,,0.36,132.0,WeatherDisplay:10.37,2013-10-15 15:11:00,
2013-10-15 10:16:00,50.0,43.1,29.84,NNE,32,0.4,3.5,77,0.00,OVC,,0.36,160.0,WeatherDisplay:10.37,2013-10-15 15:16:00,
2013-10-15 10:22:00,50.1,42.9,29.84,SE,143,1.0,7.0,76,0.00,OVC,OVC,0.36,179.0,WeatherDisplay:10.37,2013-10-15 15:22:00,
2013-10-15 10:27:00,50.1,42.5,29.84,WNW,285,1.6,3.5,75,0.00,OVC,,0.36,188.0,WeatherDisplay:10.37,2013-10-15 15:27:00,
2013-10-15 10:32:00,50.3,43.0,29.84,WSW,257,1.0,5.0,76,0.00,OVC,OVC,0.36,239.0,WeatherDisplay:10.37,2013-10-15 15:32:00,
2013-10-15 10:37:00,50.7,43.4,29.84,SE,144,1.0,4.0,76,0.00,OVC,OVC,0.36,234.0,WeatherDisplay:10.37,2013-10-15 15:37:00,
2013-10-15 10:42:00,51.4,43.7,29.84,ESE,118,1.7,3.5,75,0.00,OVC,,0.36,199.0,WeatherDisplay:10.37,2013-10-15 15:42:00,
2013-10-15 10:47:00,50.7,42.7,29.84,ENE,70,0.9,3.0,74,0.00,OVC,,0.36,237.0,WeatherDisplay:10.37,2013-10-15 15:47:00,
2013-10-15 10:53:00,50.4,42.8,29.84,SE,134,1.6,4.0,75,0.00,OVC,,0.36,156.0,WeatherDisplay:10.37,2013-10-15 15:53:00,
2013-10-15 10:58:00,50.1,42.8,29.85,SE,141,0.5,2.3,76,0.00,OVC,,0.36,141.0,WeatherDisplay:10.37,2013-10-15 15:58:00,
2013-10-15 11:03:00,49.9,42.3,29.85,WSW,239,1.1,3.5,75,0.00,OVC,,0.36,167.0,WeatherDisplay:10.37,2013-10-15 16:03:00,
2013-10-15 11:08:00,49.9,41.9,29.85,South,174,1.0,2.3,74,0.00,OVC,,0.36,199.0,WeatherDisplay:10.37,2013-10-15 16:08:00,
2013-10-15 11:14:00,50.2,42.6,29.85,South,174,0.0,1.2,75,0.00,OVC,,0.36,181.0,WeatherDisplay:10.37,2013-10-15 16:14:00,
2013-10-15 11:19:00,50.5,43.6,29.85,West,264,1.4,9.0,77,0.00,OVC,,0.36,172.0,WeatherDisplay:10.37,2013-10-15 16:19:00,
2013-10-15 11:24:00,50.2,42.6,29.85,South,173,1.0,5.8,75,0.00,OVC,,0.36,213.0,WeatherDisplay:10.37,2013-10-15 16:24:00,
2013-10-15 11:29:00,50.1,42.1,29.85,ENE,61,1.7,3.5,74,0.00,OVC,,0.36,204.0,WeatherDisplay:10.37,2013-10-15 16:29:00,
2013-10-15 11:35:00,50.0,41.7,29.85,ENE,77,1.9,8.1,73,0.00,OVC,,0.36,199.0,WeatherDisplay:10.37,2013-10-15 16:35:00,
2013-10-15 11:40:00,50.2,42.2,29.85,NNE,32,0.5,2.3,74,0.00,OVC,,0.36,220.0,WeatherDisplay:10.37,2013-10-15 16:40:00,
2013-10-15 11:45:00,50.6,42.6,29.85,NNE,32,1.0,3.5,74,0.00,OVC,,0.36,214.0,WeatherDisplay:10.37,2013-10-15 16:45:00,
2013-10-15 11:50:00,50.6,42.6,29.85,ENE,59,0.5,2.0,74,0.00,OVC,,0.36,174.0,WeatherDisplay:10.37,2013-10-15 16:50:00,
2013-10-15 11:56:00,50.3,42.3,29.85,SSW,211,1.0,3.5,74,0.00,OVC,,0.36,216.0,WeatherDisplay:10.37,2013-10-15 16:56:00,
2013-10-15 12:01:00,50.5,42.2,29.85,NNE,32,1.6,3.5,73,0.00,OVC,,0.36,230.0,WeatherDisplay:10.37,2013-10-15 17:01:00,
2013-10-15 12:06:00,50.5,42.5,29.85,NE,42,2.2,3.5,74,0.00,OVC,,0.36,199.0,WeatherDisplay:10.37,2013-10-15 17:06:00,
2013-10-15 12:11:00,50.6,42.6,29.85,NNE,32,0.4,3.5,74,0.00,OVC,,0.36,174.0,WeatherDisplay:10.37,2013-10-15 17:11:00,
2013-10-15 12:17:00,50.7,42.4,29.85,NNE,32,0.7,2.3,73,0.00,OVC,,0.36,179.0,WeatherDisplay:10.37,2013-10-15 17:17:00,
2013-10-15 12:22:00,50.6,42.6,29.85,East,79,1.0,6.0,74,0.00,OVC,OVC,0.36,167.0,WeatherDisplay:10.37,2013-10-15 17:22:00,
2013-10-15 12:27:00,50.3,42.7,29.85,East,82,1.0,4.0,75,0.00,OVC,OVC,0.36,174.0,WeatherDisplay:10.37,2013-10-15 17:27:00,
2013-10-15 12:32:00,50.5,42.8,29.85,ESE,120,1.0,7.0,75,0.00,OVC,OVC,0.36,192.0,WeatherDisplay:10.37,2013-10-15 17:32:00,
2013-10-15 12:37:00,50.3,42.3,29.85,SSE,147,1.0,4.0,74,0.00,OVC,OVC,0.36,156.0,WeatherDisplay:10.37,2013-10-15 17:37:00,
2013-10-15 12:42:00,50.1,42.1,29.85,West,275,0.4,3.5,74,0.00,OVC,,0.36,155.0,WeatherDisplay:10.37,2013-10-15 17:42:00,
2013-10-15 12:47:00,50.3,42.7,29.85,WNW,284,1.0,3.0,75,0.00,OVC,OVC,0.36,141.0,WeatherDisplay:10.37,2013-10-15 17:47:00,
2013-10-15 12:52:00,50.5,42.5,29.85,NNE,12,0.6,3.5,74,0.00,OVC,,0.36,181.0,WeatherDisplay:10.37,2013-10-15 17:52:00,
2013-10-15 12:57:00,50.7,42.4,29.85,East,80,1.1,3.5,73,0.00,OVC,,0.36,199.0,WeatherDisplay:10.37,2013-10-15 17:57:00,
2013-10-15 13:02:00,50.8,42.5,29.85,NE,40,1.8,5.8,73,0.00,OVC,,0.36,200.0,WeatherDisplay:10.37,2013-10-15 18:02:00,
2013-10-15 13:08:00,50.9,43.3,29.85,ESE,113,0.5,2.3,75,0.00,OVC,,0.36,171.0,WeatherDisplay:10.37,2013-10-15 18:08:00,
2013-10-15 13:13:00,51.0,42.6,29.85,NNE,31,1.7,5.8,73,0.00,OVC,,0.36,204.0,WeatherDisplay:10.37,2013-10-15 18:13:00,
2013-10-15 13:18:00,51.0,43.0,29.85,SE,126,1.3,4.0,74,0.00,OVC,,0.36,278.0,WeatherDisplay:10.37,2013-10-15 18:18:00,
2013-10-15 13:23:00,51.3,42.2,29.85,ESE,112,2.3,5.8,71,0.00,OVC,,0.36,239.0,WeatherDisplay:10.37,2013-10-15 18:23:00,
2013-10-15 13:29:00,51.3,42.6,29.85,ESE,105,0.6,2.3,72,0.00,OVC,,0.36,214.0,WeatherDisplay:10.37,2013-10-15 18:29:00,
2013-10-15 13:34:00,51.3,43.6,29.85,West,275,1.0,4.6,75,0.00,OVC,,0.36,200.0,WeatherDisplay:10.37,2013-10-15 18:34:00,
2013-10-15 13:39:00,51.2,42.5,29.85,NW,308,2.3,10.4,72,0.00,OVC,,0.36,174.0,WeatherDisplay:10.37,2013-10-15 18:39:00,
2013-10-15 13:45:00,50.9,42.6,29.85,NNE,32,2.1,8.1,73,0.00,OVC,,0.36,172.0,WeatherDisplay:10.37,2013-10-15 18:45:00,
2013-10-15 13:50:00,50.9,42.9,29.84,NNE,32,0.6,3.5,74,0.00,OVC,,0.36,192.0,WeatherDisplay:10.37,2013-10-15 18:50:00,
2013-10-15 13:55:00,51.0,43.0,29.84,NNE,32,0.1,3.5,74,0.00,OVC,,0.36,169.0,WeatherDisplay:10.37,2013-10-15 18:55:00,
2013-10-15 14:00:00,51.1,42.4,29.84,NNE,31,1.2,3.5,72,0.00,OVC,,0.36,225.0,WeatherDisplay:10.37,2013-10-15 19:00:00,
2013-10-15 14:06:00,51.3,42.2,29.84,NNE,32,1.1,5.8,71,0.00,OVC,,0.36,279.0,WeatherDisplay:10.37,2013-10-15 19:06:00,
2013-10-15 14:11:00,51.9,42.8,29.84,NW,305,2.7,4.6,71,0.00,OVC,,0.36,425.0,WeatherDisplay:10.37,2013-10-15 19:11:00,
2013-10-15 14:16:00,52.5,44.1,29.84,NNE,31,1.3,3.5,73,0.00,OVC,,0.36,292.0,WeatherDisplay:10.37,2013-10-15 19:16:00,
2013-10-15 14:21:00,52.4,42.9,29.84,WSW,244,1.1,3.5,70,0.00,OVC,,0.36,223.0,WeatherDisplay:10.37,2013-10-15 19:21:00,
2013-10-15 14:27:00,51.8,43.1,29.85,NNE,31,1.5,3.5,72,0.00,OVC,,0.36,149.0,WeatherDisplay:10.37,2013-10-15 19:27:00,
2013-10-15 14:32:00,51.2,42.9,29.85,NNE,14,1.0,3.0,73,0.00,OVC,OVC,0.36,135.0,WeatherDisplay:10.37,2013-10-15 19:32:00,
2013-10-15 14:37:00,50.9,42.2,29.84,NNE,32,2.2,5.8,72,0.00,OVC,,0.36,125.0,WeatherDisplay:10.37,2013-10-15 19:37:00,
2013-10-15 14:42:00,50.7,42.4,29.84,NNE,32,2.1,8.1,73,0.00,OVC,,0.36,125.0,WeatherDisplay:10.37,2013-10-15 19:42:00,
2013-10-15 14:48:00,50.6,42.3,29.84,NNE,33,2.0,3.5,73,0.00,OVC,,0.36,134.0,WeatherDisplay:10.37,2013-10-15 19:48:00,
2013-10-15 14:53:00,50.6,41.9,29.85,NNE,32,1.6,12.7,72,0.00,OVC,,0.36,186.0,WeatherDisplay:10.37,2013-10-15 19:53:00,
2013-10-15 14:58:00,51.2,42.8,29.84,NNE,32,1.1,5.0,73,0.00,OVC,,0.36,197.0,WeatherDisplay:10.37,2013-10-15 19:58:00,
2013-10-15 15:03:00,51.4,42.7,29.84,East,84,1.7,3.5,72,0.00,OVC,,0.36,200.0,WeatherDisplay:10.37,2013-10-15 20:03:00,
2013-10-15 15:09:00,51.6,43.2,29.84,NNE,32,1.8,3.5,73,0.00,OVC,,0.36,329.0,WeatherDisplay:10.37,2013-10-15 20:09:00,
2013-10-15 15:14:00,51.8,42.3,29.84,NNE,32,1.7,4.6,70,0.00,OVC,,0.36,190.0,WeatherDisplay:10.37,2013-10-15 20:14:00,
2013-10-15 15:19:00,51.7,43.3,29.84,ENE,57,0.6,3.5,73,0.00,OVC,,0.36,176.0,WeatherDisplay:10.37,2013-10-15 20:19:00,
2013-10-15 15:24:00,51.6,42.5,29.85,NE,40,2.3,6.9,71,0.00,OVC,,0.36,163.0,WeatherDisplay:10.37,2013-10-15 20:24:00,
2013-10-15 15:30:00,51.3,42.9,29.85,NE,44,1.8,5.0,73,0.00,OVC,,0.36,142.0,WeatherDisplay:10.37,2013-10-15 20:30:00,
2013-10-15 15:35:00,51.4,43.0,29.85,NNE,32,1.0,3.5,73,0.00,OVC,,0.36,135.0,WeatherDisplay:10.37,2013-10-15 20:35:00,
2013-10-15 15:40:00,51.4,42.7,29.85,East,94,2.5,4.6,72,0.00,OVC,,0.36,98.0,WeatherDisplay:10.37,2013-10-15 20:40:00,
2013-10-15 15:45:00,51.3,42.6,29.85,East,100,1.5,3.5,72,0.00,OVC,,0.36,76.0,WeatherDisplay:10.37,2013-10-15 20:45:00,
2013-10-15 15:51:00,51.1,42.4,29.86,NNE,32,0.4,3.5,72,0.00,OVC,,0.36,70.0,WeatherDisplay:10.37,2013-10-15 20:51:00,
2013-10-15 15:56:00,51.0,42.6,29.86,ENE,73,1.0,3.5,73,0.00,OVC,,0.36,58.0,WeatherDisplay:10.37,2013-10-15 20:56:00,
2013-10-15 16:01:00,50.9,42.2,29.86,SSW,211,1.9,4.0,72,0.00,OVC,,0.36,54.0,WeatherDisplay:10.37,2013-10-15 21:01:00,
2013-10-15 16:06:00,50.8,42.5,29.86,SSW,210,0.9,5.0,73,0.00,OVC,,0.36,54.0,WeatherDisplay:10.37,2013-10-15 21:06:00,
2013-10-15 16:12:00,50.8,42.4,29.86,SW,223,1.0,5.0,73,0.00,OVC,OVC,0.36,67.0,WeatherDisplay:10.37,2013-10-15 21:12:00,
2013-10-15 16:17:00,50.8,42.5,29.87,SSE,162,1.0,5.0,73,0.00,OVC,OVC,0.36,62.0,WeatherDisplay:10.37,2013-10-15 21:17:00,
2013-10-15 16:22:00,50.7,42.4,29.87,West,280,0.6,4.0,73,0.00,OVC,,0.36,72.0,WeatherDisplay:10.37,2013-10-15 21:22:00,
2013-10-15 16:27:00,50.6,42.3,29.87,SE,136,2.0,6.0,73,0.00,OVC,OVC,0.36,70.0,WeatherDisplay:10.37,2013-10-15 21:27:00,
2013-10-15 16:32:00,50.4,42.1,29.86,NW,315,1.6,7.0,73,0.00,OVC,,0.36,65.0,WeatherDisplay:10.37,2013-10-15 21:32:00,
2013-10-15 16:37:00,50.3,42.0,29.86,SE,132,1.1,3.5,73,0.00,OVC,,0.36,63.0,WeatherDisplay:10.37,2013-10-15 21:37:00,
2013-10-15 16:42:00,50.3,42.3,29.87,ESE,121,0.9,2.3,74,0.00,OVC,,0.36,65.0,WeatherDisplay:10.37,2013-10-15 21:42:00,
2013-10-15 16:48:00,50.3,42.3,29.87,NNW,346,2.4,5.0,74,0.00,OVC,,0.36,47.0,WeatherDisplay:10.37,2013-10-15 21:48:00,
2013-10-15 16:53:00,50.2,42.6,29.87,North,360,2.1,4.6,75,0.00,OVC,,0.36,47.0,WeatherDisplay:10.37,2013-10-15 21:53:00,
2013-10-15 16:58:00,50.0,42.4,29.86,West,267,2.0,10.4,75,0.00,OVC,,0.36,39.0,WeatherDisplay:10.37,2013-10-15 21:58:00,
2013-10-15 17:03:00,49.9,42.3,29.87,NNE,32,1.9,3.5,75,0.00,OVC,,0.36,30.0,WeatherDisplay:10.37,2013-10-15 22:03:00,
2013-10-15 17:09:00,49.9,42.6,29.87,NE,36,1.0,3.5,76,0.00,OVC,,0.36,26.0,WeatherDisplay:10.37,2013-10-15 22:09:00,
2013-10-15 17:14:00,49.8,42.5,29.87,WSW,252,1.7,5.8,76,0.00,OVC,,0.36,21.0,WeatherDisplay:10.37,2013-10-15 22:14:00,
2013-10-15 17:19:00,49.7,42.4,29.87,West,275,0.2,3.5,76,0.00,OVC,,0.36,21.0,WeatherDisplay:10.37,2013-10-15 22:19:00,
2013-10-15 17:24:00,49.7,42.8,29.87,WNW,293,0.8,3.5,77,0.00,OVC,,0.36,16.0,WeatherDisplay:10.37,2013-10-15 22:24:00,
2013-10-15 17:30:00,49.7,42.4,29.87,SW,235,2.8,11.5,76,0.00,OVC,,0.36,14.0,WeatherDisplay:10.37,2013-10-15 22:30:00,
2013-10-15 17:35:00,49.6,42.7,29.87,NNE,32,1.2,5.8,77,0.00,OVC,,0.36,12.0,WeatherDisplay:10.37,2013-10-15 22:35:00,
2013-10-15 17:40:00,49.5,42.6,29.87,NNE,32,0.6,4.0,77,0.00,OVC,,0.36,12.0,WeatherDisplay:10.37,2013-10-15 22:40:00,
2013-10-15 17:45:00,49.5,42.9,29.87,NNE,32,0.6,3.5,78,0.00,OVC,,0.36,11.0,WeatherDisplay:10.37,2013-10-15 22:45:00,
2013-10-15 17:51:00,49.5,42.6,29.87,NNE,32,0.5,2.3,77,0.00,OVC,,0.36,9.0,WeatherDisplay:10.37,2013-10-15 22:51:00,
2013-10-15 17:56:00,49.5,42.9,29.87,ENE,68,0.5,3.0,78,0.00,OVC,,0.36,9.0,WeatherDisplay:10.37,2013-10-15 22:56:00,
2013-10-15 18:01:00,49.5,42.9,29.88,NNE,32,0.8,2.3,78,0.00,OVC,,0.36,7.0,WeatherDisplay:10.37,2013-10-15 23:01:00,
2013-10-15 18:06:00,49.4,42.8,29.87,NE,35,0.6,3.5,78,0.00,OVC,,0.36,5.0,WeatherDisplay:10.37,2013-10-15 23:06:00,
2013-10-15 18:12:00,49.4,42.8,29.87,NE,46,1.0,4.0,78,0.00,OVC,OVC,0.36,0.0,WeatherDisplay:10.37,2013-10-15 23:12:00,
2013-10-15 18:17:00,49.3,43.1,29.87,NE,46,0.0,2.0,79,0.00,OVC,OVC,0.36,0.0,WeatherDisplay:10.37,2013-10-15 23:17:00,
2013-10-15 18:22:00,49.2,43.3,29.88,NE,36,1.0,2.0,80,0.00,OVC,OVC,0.36,0.0,WeatherDisplay:10.37,2013-10-15 23:22:00,
2013-10-15 18:27:00,49.2,42.6,29.87,NE,50,1.0,4.0,78,0.00,OVC,OVC,0.36,0.0,WeatherDisplay:10.37,2013-10-15 23:27:00,
2013-10-15 18:32:00,49.2,42.6,29.88,SSE,168,2.0,12.0,78,0.00,OVC,OVC,0.36,0.0,WeatherDisplay:10.37,2013-10-15 23:32:00,
2013-10-15 18:37:00,49.1,42.9,29.87,ESE,113,3.0,8.1,79,0.00,OVC,,0.36,0.0,WeatherDisplay:10.37,2013-10-15 23:37:00,
2013-10-15 18:42:00,49.0,42.8,29.88,SE,126,1.0,10.0,79,0.00,OVC,OVC,0.36,0.0,WeatherDisplay:10.37,2013-10-15 23:42:00,
2013-10-15 18:47:00,48.9,43.0,29.88,West,259,1.2,4.6,80,0.00,OVC,,0.36,0.0,WeatherDisplay:10.37,2013-10-15 23:47:00,
2013-10-15 18:52:00,48.9,43.0,29.88,ENE,61,1.5,3.5,80,0.00,OVC,,0.36,0.0,WeatherDisplay:10.37,2013-10-15 23:52:00,
2013-10-15 18:57:00,48.8,43.2,29.88,East,85,1.5,7.0,81,0.00,OVC,,0.36,0.0,WeatherDisplay:10.37,2013-10-15 23:57:00,
2013-10-15 19:03:00,48.8,43.2,29.89,NNE,32,2.1,4.6,81,0.00,OVC,,0.36,0.0,WeatherDisplay:10.37,2013-10-16 00:03:00,
2013-10-15 19:08:00,48.7,43.1,29.89,SW,219,1.5,3.5,81,0.00,OVC,,0.36,0.0,WeatherDisplay:10.37,2013-10-16 00:08:00,
2013-10-15 19:13:00,48.7,43.1,29.90,SW,219,0.4,3.0,81,0.00,OVC,,0.36,0.0,WeatherDisplay:10.37,2013-10-16 00:13:00,
2013-10-15 19:18:00,48.7,43.5,29.90,SW,232,0.1,2.3,82,0.00,OVC,,0.36,0.0,WeatherDisplay:10.37,2013-10-16 00:18:00,
2013-10-15 19:24:00,48.7,43.5,29.90,SW,232,0.0,0.0,82,0.00,OVC,,0.36,0.0,WeatherDisplay:10.37,2013-10-16 00:24:00,
2013-10-15 19:29:00,48.6,43.4,29.90,SW,232,1.0,2.3,82,0.00,OVC,,0.36,0.0,WeatherDisplay:10.37,2013-10-16 00:29:00,
2013-10-15 19:34:00,48.7,43.5,29.90,ENE,78,0.9,3.5,82,0.00,OVC,,0.36,0.0,WeatherDisplay:10.37,2013-10-16 00:34:00,
2013-10-15 19:39:00,48.6,43.4,29.90,SE,126,1.5,2.3,82,0.00,OVC,,0.36,0.0,WeatherDisplay:10.37,2013-10-16 00:39:00,
2013-10-15 19:45:00,48.5,43.3,29.91,NNE,32,0.2,2.3,82,0.00,OVC,,0.36,0.0,WeatherDisplay:10.37,2013-10-16 00:45:00,
2013-10-15 19:50:00,48.5,43.6,29.91,NNE,32,1.6,5.8,83,0.00,OVC,,0.36,0.0,WeatherDisplay:10.37,2013-10-16 00:50:00,
2013-10-15 19:55:00,48.4,43.5,29.91,NE,36,0.9,3.0,83,0.00,OVC,,0.36,0.0,WeatherDisplay:10.37,2013-10-16 00:55:00,
2013-10-15 20:00:00,48.3,43.4,29.91,NE,53,0.0,0.0,83,0.00,OVC,,0.36,0.0,WeatherDisplay:10.37,2013-10-16 01:00:00,
2013-10-15 20:06:00,48.3,43.7,29.91,NNE,32,0.0,3.5,84,0.00,OVC,,0.36,0.0,WeatherDisplay:10.37,2013-10-16 01:06:00,
2013-10-15 20:11:00,48.3,43.7,29.91,NE,38,1.4,4.0,84,0.00,OVC,,0.36,0.0,WeatherDisplay:10.37,2013-10-16 01:11:00,
2013-10-15 20:16:00,48.3,43.7,29.92,ESE,110,0.0,1.2,84,0.00,OVC,,0.36,0.0,WeatherDisplay:10.37,2013-10-16 01:16:00,
2013-10-15 20:21:00,48.3,43.7,29.92,South,169,1.3,4.6,84,0.00,OVC,,0.36,0.0,WeatherDisplay:10.37,2013-10-16 01:21:00,
2013-10-15 20:27:00,48.3,43.7,29.92,NNE,32,0.4,4.6,84,0.00,OVC,,0.36,0.0,WeatherDisplay:10.37,2013-10-16 01:27:00,
2013-10-15 20:32:00,48.3,43.7,29.92,NE,40,0.0,4.0,84,0.00,OVC,OVC,0.36,0.0,WeatherDisplay:10.37,2013-10-16 01:32:00,
2013-10-15 20:37:00,48.3,43.4,29.92,NNE,32,1.1,2.3,83,0.00,OVC,,0.36,0.0,WeatherDisplay:10.37,2013-10-16 01:37:00,
2013-10-15 20:42:00,48.3,43.4,29.92,NNE,32,2.8,9.2,83,0.00,OVC,,0.36,0.0,WeatherDisplay:10.37,2013-10-16 01:42:00,
2013-10-15 20:48:00,48.3,43.4,29.92,NNE,32,0.2,1.2,83,0.00,OVC,,0.36,0.0,WeatherDisplay:10.37,2013-10-16 01:48:00,
2013-10-15 20:53:00,48.2,43.6,29.93,NNE,32,0.8,2.3,84,0.00,OVC,,0.36,0.0,WeatherDisplay:10.37,2013-10-16 01:53:00,
2013-10-15 20:58:00,48.2,43.6,29.92,East,88,0.8,3.5,84,0.00,OVC,,0.36,0.0,WeatherDisplay:10.37,2013-10-16 01:58:00,
2013-10-15 21:03:00,48.1,43.5,29.92,NE,53,1.9,3.5,84,0.00,OVC,,0.36,0.0,WeatherDisplay:10.37,2013-10-16 02:03:00,
2013-10-15 21:09:00,48.0,43.7,29.92,SSW,202,2.7,6.9,85,0.00,OVC,,0.36,0.0,WeatherDisplay:10.37,2013-10-16 02:09:00,
2013-10-15 21:14:00,47.9,43.6,29.92,NE,49,1.5,3.5,85,0.00,OVC,,0.36,0.0,WeatherDisplay:10.37,2013-10-16 02:14:00,
2013-10-15 21:19:00,47.8,43.8,29.92,SE,127,1.2,3.5,86,0.00,OVC,,0.36,0.0,WeatherDisplay:10.37,2013-10-16 02:19:00,
2013-10-15 21:24:00,47.7,43.7,29.92,WNW,294,0.5,3.5,86,0.00,OVC,,0.36,0.0,WeatherDisplay:10.37,2013-10-16 02:24:00,
2013-10-15 21:30:00,47.6,43.6,29.92,West,273,0.5,2.3,86,0.00,OVC,,0.36,0.0,WeatherDisplay:10.37,2013-10-16 02:30:00,
2013-10-15 21:35:00,47.6,43.6,29.92,West,272,0.7,2.3,86,0.00,OVC,,0.36,0.0,WeatherDisplay:10.37,2013-10-16 02:35:00,
2013-10-15 21:40:00,47.6,43.6,29.92,NW,321,0.7,8.1,86,0.00,OVC,,0.36,0.0,WeatherDisplay:10.37,2013-10-16 02:40:00,
2013-10-15 21:45:00,47.5,43.8,29.92,NNE,32,1.9,4.6,87,0.00,OVC,,0.36,0.0,WeatherDisplay:10.37,2013-10-16 02:45:00,
2013-10-15 21:51:00,47.4,43.7,29.92,NNE,32,1.0,3.5,87,0.00,OVC,,0.36,0.0,WeatherDisplay:10.37,2013-10-16 02:51:00,
2013-10-15 21:56:00,47.4,43.7,29.92,NNE,32,0.2,2.3,87,0.00,OVC,,0.36,0.0,WeatherDisplay:10.37,2013-10-16 02:56:00,
2013-10-15 22:01:00,47.3,43.6,29.93,NNE,32,1.3,5.0,87,0.00,OVC,,0.36,0.0,WeatherDisplay:10.37,2013-10-16 03:01:00,
2013-10-15 22:06:00,47.3,43.6,29.93,NNE,32,1.4,5.8,87,0.00,OVC,,0.36,0.0,WeatherDisplay:10.37,2013-10-16 03:06:00,
2013-10-15 22:12:00,47.2,43.8,29.93,NNE,32,1.7,4.0,88,0.00,OVC,,0.36,0.0,WeatherDisplay:10.37,2013-10-16 03:12:00,
2013-10-15 22:17:00,47.2,43.8,29.93,NNE,32,0.1,2.3,88,0.00,OVC,,0.36,0.0,WeatherDisplay:10.37,2013-10-16 03:17:00,
2013-10-15 22:22:00,47.2,43.5,29.93,NNE,32,1.4,3.5,87,0.00,OVC,,0.36,0.0,WeatherDisplay:10.37,2013-10-16 03:22:00,
2013-10-15 22:27:00,47.2,43.5,29.93,NNE,32,1.2,3.5,87,0.00,OVC,,0.36,0.0,WeatherDisplay:10.37,2013-10-16 03:27:00,
2013-10-15 22:33:00,47.2,43.5,29.93,NNE,32,0.7,3.5,87,0.00,OVC,,0.36,0.0,WeatherDisplay:10.37,2013-10-16 03:33:00,
2013-10-15 22:38:00,47.2,43.5,29.93,NNE,32,2.7,8.0,87,0.00,OVC,,0.36,0.0,WeatherDisplay:10.37,2013-10-16 03:38:00,
2013-10-15 22:43:00,47.1,43.4,29.93,NNE,32,1.9,4.6,87,0.00,OVC,,0.36,0.0,WeatherDisplay:10.37,2013-10-16 03:43:00,
2013-10-15 22:48:00,47.1,43.4,29.93,NNE,32,1.2,5.0,87,0.00,OVC,,0.36,0.0,WeatherDisplay:10.37,2013-10-16 03:48:00,
2013-10-15 22:54:00,47.1,43.7,29.93,NNE,32,0.0,0.0,88,0.00,OVC,,0.36,0.0,WeatherDisplay:10.37,2013-10-16 03:54:00,
2013-10-15 22:59:00,47.1,43.7,29.93,NNE,32,0.0,0.0,88,0.00,OVC,,0.36,0.0,WeatherDisplay:10.37,2013-10-16 03:59:00,
2013-10-15 23:01:00,47.1,43.4,29.93,NNE,32,0.6,3.5,87,0.00,OVC,,0.36,0.0,WeatherDisplay:10.37,2013-10-16 04:01:00,
2013-10-15 23:02:00,47.1,43.4,29.93,NNE,32,1.2,3.5,87,0.00,OVC,,0.36,0.0,WeatherDisplay:10.37,2013-10-16 04:02:00,
2013-10-15 23:07:00,47.0,43.3,29.93,NNE,32,1.3,3.5,87,0.00,OVC,,0.36,0.0,WeatherDisplay:10.37,2013-10-16 04:07:00,
2013-10-15 23:12:00,47.0,43.3,29.93,NNE,32,2.0,5.0,87,0.00,OVC,OVC,0.36,0.0,WeatherDisplay:10.37,2013-10-16 04:12:00,
2013-10-15 23:17:00,47.0,43.4,29.93,NNE,32,1.0,5.0,87,0.00,OVC,OVC,0.36,0.0,WeatherDisplay:10.37,2013-10-16 04:17:00,
2013-10-15 23:22:00,47.0,43.3,29.93,NNE,32,0.2,1.2,87,0.00,OVC,,0.36,0.0,WeatherDisplay:10.37,2013-10-16 04:22:00,
2013-10-15 23:27:00,47.0,43.3,29.93,NNE,32,1.0,10.0,87,0.00,OVC,OVC,0.36,0.0,WeatherDisplay:10.37,2013-10-16 04:27:00,
2013-10-15 23:32:00,47.0,43.3,29.93,NNE,32,0.9,3.5,87,0.00,OVC,,0.36,0.0,WeatherDisplay:10.37,2013-10-16 04:32:00,
2013-10-15 23:37:00,47.0,43.3,29.93,NNE,32,0.9,3.0,87,0.00,OVC,,0.36,0.0,WeatherDisplay:10.37,2013-10-16 04:37:00,
2013-10-15 23:42:00,47.0,43.3,29.93,NNE,32,0.1,1.2,87,0.00,OVC,,0.36,0.0,WeatherDisplay:10.37,2013-10-16 04:42:00,
2013-10-15 23:48:00,47.0,43.3,29.93,NNE,32,0.3,2.3,87,0.00,OVC,,0.36,0.0,WeatherDisplay:10.37,2013-10-16 04:48:00,
2013-10-15 23:53:00,47.0,43.0,29.93,NNE,32,2.0,4.0,86,0.00,OVC,,0.36,0.0,WeatherDisplay:10.37,2013-10-16 04:53:00,
2013-10-15 23:58:00,47.1,43.1,29.93,NNE,32,1.0,3.5,86,0.00,OVC,,0.36,0.0,WeatherDisplay:10.37,2013-10-16 04:58:00,